createdAt,value
2023-04-01T00:03:06.581Z,11.30
2023-04-01T00:08:09.315Z,11.10
2023-04-01T00:13:14.627Z,10.90
2023-04-01T00:18:18.740Z,10.70
2023-04-01T00:23:22.580Z,10.60
2023-04-01T00:28:25.243Z,10.50
2023-04-01T00:33:29.239Z,10.50
2023-04-01T00:38:31.893Z,10.50
2023-04-01T00:43:35.469Z,10.50
2023-04-01T00:48:43.998Z,10.60
2023-04-01T00:53:50.335Z,10.60
2023-04-01T00:58:56.898Z,10.70
2023-04-01T01:04:02.429Z,10.60
2023-04-01T01:09:14.518Z,10.60
2023-04-01T01:14:35.283Z,10.70
2023-04-01T01:19:54.738Z,10.60
2023-04-01T01:25:14.592Z,10.70
2023-04-01T01:30:36.879Z,10.80
2023-04-01T01:35:44.236Z,10.90
2023-04-01T01:40:52.723Z,10.90
2023-04-01T01:45:59.178Z,10.90
2023-04-01T01:51:04.119Z,11.00
2023-04-01T01:56:07.973Z,10.90
2023-04-01T02:01:16.600Z,11.00
2023-04-01T02:06:23.194Z,11.00
2023-04-01T02:11:31.032Z,10.90
2023-04-01T02:16:37.204Z,11.00
2023-04-01T02:21:42.449Z,11.00
2023-04-01T02:26:46.807Z,10.90
2023-04-01T02:31:51.041Z,10.90
2023-04-01T02:36:56.803Z,11.00
2023-04-01T02:41:59.538Z,11.00
2023-04-01T02:47:02.417Z,11.00
2023-04-01T02:52:06.814Z,11.00
2023-04-01T02:57:09.552Z,11.00
2023-04-01T03:02:12.246Z,11.00
2023-04-01T03:07:16.348Z,10.90
2023-04-01T03:12:19.003Z,10.90
2023-04-01T03:17:21.719Z,10.90
2023-04-01T03:22:25.810Z,10.90
2023-04-01T03:27:28.479Z,10.90
2023-04-01T03:32:31.428Z,11.00
2023-04-01T03:37:35.574Z,11.00
2023-04-01T03:42:38.303Z,10.90
2023-04-01T03:47:41.335Z,10.90
2023-04-01T03:52:45.533Z,11.00
2023-04-01T03:57:48.281Z,10.90
2023-04-01T04:02:51.343Z,11.00
2023-04-01T04:07:56.583Z,10.90
2023-04-01T04:12:59.298Z,10.90
2023-04-01T04:18:02.006Z,10.90
2023-04-01T04:23:06.081Z,10.90
2023-04-01T04:28:08.877Z,11.00
2023-04-01T04:33:11.597Z,11.00
2023-04-01T04:38:15.960Z,11.00
2023-04-01T04:43:20.196Z,11.00
2023-04-01T04:48:22.850Z,11.00
2023-04-01T04:53:27.255Z,11.10
2023-04-01T04:58:29.890Z,11.10
2023-04-01T05:03:32.751Z,11.10
2023-04-01T05:08:38.334Z,11.10
2023-04-01T05:13:41.198Z,11.10
2023-04-01T05:18:44.370Z,11.10
2023-04-01T05:23:48.468Z,11.20
2023-04-01T05:28:51.155Z,11.20
2023-04-01T05:33:55.064Z,11.30
2023-04-01T05:38:59.234Z,11.30
2023-04-01T05:44:01.904Z,11.30
2023-04-01T05:49:04.726Z,11.40
2023-04-01T05:54:08.740Z,11.40
2023-04-01T05:59:12.843Z,11.50
2023-04-01T06:04:17.451Z,11.60
2023-04-01T06:09:27.431Z,11.50
2023-04-01T06:14:40.440Z,11.50
2023-04-01T06:19:53.565Z,11.40
2023-04-01T06:25:09.216Z,11.40
2023-04-01T06:30:34.793Z,11.40
2023-04-01T06:35:54.250Z,11.60
2023-04-01T06:41:30.612Z,11.90
2023-04-01T06:46:41.704Z,12.10
2023-04-01T06:51:53.402Z,12.30
2023-04-01T06:57:02.828Z,12.50
2023-04-01T07:02:15.159Z,12.50
2023-04-01T07:07:26.329Z,12.70
2023-04-01T07:12:39.730Z,12.70
2023-04-01T07:17:45.052Z,12.80
2023-04-01T07:22:50.250Z,12.90
2023-04-01T07:27:58.638Z,13.10
2023-04-01T07:33:10.618Z,12.90
2023-04-01T07:38:23.075Z,13.00
2023-04-01T07:43:55.403Z,13.20
2023-04-01T07:49:03.011Z,13.30
2023-04-01T07:54:17.166Z,13.30
2023-04-01T07:59:31.930Z,13.00
2023-04-01T08:04:50.582Z,13.20
2023-04-01T08:10:05.369Z,13.50
2023-04-01T08:15:23.014Z,13.70
2023-04-01T08:20:34.456Z,13.90
2023-04-01T08:25:41.650Z,14.60
2023-04-01T08:30:49.539Z,14.90
2023-04-01T08:35:57.951Z,15.40
2023-04-01T08:41:06.007Z,15.20
2023-04-01T08:46:27.353Z,14.90
2023-04-01T08:52:12.709Z,14.50
2023-04-01T08:57:24.111Z,14.90
2023-04-01T09:03:13.416Z,14.90
2023-04-01T09:08:33.473Z,14.40
2023-04-01T09:14:06.891Z,14.60
2023-04-01T09:19:22.218Z,14.70
2023-04-01T09:25:02.158Z,14.20
2023-04-01T09:30:35.427Z,14.50
2023-04-01T09:35:45.310Z,14.30
2023-04-01T09:40:57.145Z,14.20
2023-04-01T09:46:22.415Z,14.50
2023-04-01T09:51:35.220Z,14.50
2023-04-01T09:57:22.718Z,14.70
2023-04-01T10:03:07.773Z,14.80
2023-04-01T10:08:50.347Z,14.90
2023-04-01T10:14:23.382Z,15.10
2023-04-01T10:20:08.475Z,15.00
2023-04-01T10:25:52.487Z,14.80
2023-04-01T10:31:28.809Z,14.80
2023-04-01T10:36:52.623Z,14.70
2023-04-01T10:42:29.567Z,14.70
2023-04-01T10:47:55.144Z,14.40
2023-04-01T10:53:31.220Z,14.60
2023-04-01T10:59:10.681Z,14.70
2023-04-01T11:04:44.971Z,15.20
2023-04-01T11:10:22.764Z,16.10
2023-04-01T11:16:06.734Z,16.80
2023-04-01T11:21:58.981Z,18.20
2023-04-01T11:27:12.292Z,20.90
2023-04-01T11:32:28.410Z,21.70
2023-04-01T11:37:40.962Z,20.40
2023-04-01T11:42:51.289Z,19.00
2023-04-01T11:48:05.105Z,22.00
2023-04-01T11:53:25.501Z,21.90
2023-04-01T11:58:42.613Z,19.00
2023-04-01T12:04:26.351Z,18.70
2023-04-01T12:09:43.582Z,19.50
2023-04-01T12:14:59.273Z,22.30
2023-04-01T12:20:12.978Z,26.20
2023-04-01T12:25:39.914Z,26.30
2023-04-01T12:30:57.021Z,27.60
2023-04-01T12:36:13.804Z,26.40
2023-04-01T12:41:24.532Z,21.60
2023-04-01T12:46:34.365Z,18.60
2023-04-01T12:52:01.284Z,17.00
2023-04-01T12:57:22.263Z,16.30
2023-04-01T13:02:39.896Z,16.20
2023-04-01T13:08:06.631Z,16.40
2023-04-01T13:13:25.138Z,17.00
2023-04-01T13:18:38.175Z,18.40
2023-04-01T13:24:02.223Z,22.80
2023-04-01T13:29:13.116Z,26.20
2023-04-01T13:34:26.699Z,24.10
2023-04-01T13:39:44.253Z,22.30
2023-04-01T13:44:52.540Z,20.70
2023-04-01T13:50:10.248Z,21.50
2023-04-01T13:55:33.333Z,22.40
2023-04-01T14:00:47.798Z,20.40
2023-04-01T14:06:04.284Z,19.10
2023-04-01T14:11:18.572Z,19.60
2023-04-01T14:16:57.036Z,20.20
2023-04-01T14:22:11.124Z,18.80
2023-04-01T14:27:26.781Z,17.10
2023-04-01T14:32:39.314Z,16.50
2023-04-01T14:37:59.965Z,16.60
2023-04-01T14:43:17.426Z,18.50
2023-04-01T14:48:31.051Z,20.30
2023-04-01T14:53:39.594Z,20.50
2023-04-01T14:58:46.157Z,18.90
2023-04-01T15:04:00.430Z,17.60
2023-04-01T15:09:15.155Z,17.20
2023-04-01T15:14:40.720Z,17.60
2023-04-01T15:20:01.661Z,17.80
2023-04-01T15:25:37.113Z,17.80
2023-04-01T15:30:51.125Z,17.70
2023-04-01T15:36:03.725Z,17.40
2023-04-01T15:41:17.050Z,17.00
2023-04-01T15:46:37.962Z,16.60
2023-04-01T15:51:56.252Z,16.40
2023-04-01T15:57:17.482Z,16.40
2023-04-01T16:02:24.968Z,16.30
2023-04-01T16:07:50.582Z,16.00
2023-04-01T16:13:04.372Z,15.50
2023-04-01T16:18:27.545Z,15.10
2023-04-01T16:23:39.673Z,14.90
2023-04-01T16:28:50.750Z,14.60
2023-04-01T16:34:00.674Z,14.30
2023-04-01T16:39:24.142Z,14.10
2023-04-01T16:44:28.446Z,14.00
2023-04-01T16:49:37.787Z,14.00
2023-04-01T16:54:47.981Z,13.80
2023-04-01T16:59:59.844Z,13.60
2023-04-01T17:05:05.696Z,13.30
2023-04-01T17:10:24.526Z,13.20
2023-04-01T17:15:38.274Z,13.00
2023-04-01T17:20:45.350Z,13.00
2023-04-01T17:26:16.556Z,12.80
2023-04-01T17:31:46.823Z,12.70
2023-04-01T17:37:03.542Z,12.60
2023-04-01T17:42:11.844Z,12.50
2023-04-01T17:47:33.232Z,12.40
2023-04-01T17:52:41.838Z,12.20
2023-04-01T17:57:54.151Z,12.20
2023-04-01T18:03:09.005Z,12.10
2023-04-01T18:08:20.335Z,12.10
2023-04-01T18:13:44.607Z,12.20
2023-04-01T18:18:58.134Z,12.20
2023-04-01T18:24:08.217Z,12.10
2023-04-01T18:29:26.803Z,12.00
2023-04-01T18:34:42.638Z,12.10
2023-04-01T18:39:50.934Z,12.00
2023-04-01T18:45:05.259Z,11.90
2023-04-01T19:39:19.709Z,11.20
2023-04-01T19:44:41.892Z,11.30
2023-04-01T19:50:24.665Z,11.10
2023-04-01T20:21:08.809Z,10.80
2023-04-01T20:26:13.762Z,10.80
2023-04-01T20:31:33.446Z,10.90
2023-04-01T20:36:43.638Z,11.00
2023-04-01T20:41:58.744Z,11.00
2023-04-01T20:47:13.396Z,11.20
2023-04-01T20:52:38.274Z,11.10
2023-04-01T20:57:48.954Z,11.00
2023-04-01T21:03:13.299Z,11.00
2023-04-01T21:08:28.835Z,11.00
2023-04-01T21:13:45.729Z,11.00
2023-04-01T21:19:06.555Z,11.00
2023-04-01T21:24:37.772Z,11.00
2023-04-01T21:29:53.607Z,10.90
2023-04-01T21:35:05.586Z,11.00
2023-04-01T21:40:45.100Z,11.10
2023-04-01T21:46:05.535Z,11.10
2023-04-01T21:51:37.441Z,11.10
2023-04-01T21:57:05.005Z,11.10
2023-04-01T22:02:28.841Z,11.20
2023-04-01T22:07:39.304Z,11.30
2023-04-01T22:12:48.196Z,11.30
2023-04-01T22:18:02.586Z,11.10
2023-04-01T22:23:18.854Z,11.10
2023-04-01T22:28:28.944Z,10.90
2023-04-01T22:33:37.022Z,10.70
2023-04-01T22:39:04.724Z,10.50
2023-04-01T22:44:21.165Z,10.50
2023-04-01T22:49:28.950Z,10.50
2023-04-01T22:54:37.752Z,10.30
2023-04-01T22:59:48.628Z,10.10
2023-04-01T23:04:57.052Z,10.00
2023-04-01T23:10:05.772Z,9.90
2023-04-01T23:15:16.144Z,9.80
2023-04-01T23:20:36.368Z,9.80
2023-04-01T23:25:49.513Z,9.70
2023-04-01T23:30:53.914Z,9.70
2023-04-01T23:36:05.961Z,9.80
2023-04-01T23:41:18.898Z,9.70
2023-04-01T23:46:23.759Z,9.70
2023-04-01T23:51:29.980Z,9.60
2023-04-01T23:56:41.244Z,9.50
